createdAt,value
2018-06-19T00:00:02.456Z,16.81
2018-06-19T00:00:06.775Z,16.73
2018-06-19T00:00:10.878Z,16.8
2018-06-19T00:00:15.085Z,16.77
2018-06-19T00:00:19.398Z,16.78
2018-06-19T00:00:23.598Z,16.73
2018-06-19T00:00:27.801Z,16.75
2018-06-19T00:00:32.016Z,16.77
2018-06-19T00:00:36.335Z,16.72
2018-06-19T00:00:40.642Z,16.75
2018-06-19T00:00:44.749Z,16.78
2018-06-19T00:00:48.952Z,16.73
2018-06-19T00:00:53.155Z,16.69
2018-06-19T00:00:57.359Z,16.77
2018-06-19T00:01:01.575Z,16.77
2018-06-19T00:01:05.463Z,16.67
2018-06-19T00:01:09.664Z,16.67
2018-06-19T00:01:13.871Z,16.66
2018-06-19T00:01:18.194Z,16.73
2018-06-19T00:01:22.509Z,16.72
2018-06-19T00:01:26.611Z,16.69
2018-06-19T00:01:30.812Z,16.67
2018-06-19T00:01:34.910Z,16.66
2018-06-19T00:01:39.215Z,16.67
2018-06-19T00:01:43.413Z,16.66
2018-06-19T00:01:47.511Z,16.65
2018-06-19T00:01:51.722Z,16.7
2018-06-19T00:01:56.029Z,16.67
2018-06-19T00:02:00.129Z,16.75
2018-06-19T00:02:04.227Z,16.73
2018-06-19T00:02:08.220Z,16.65
2018-06-19T00:02:12.418Z,16.66
2018-06-19T00:02:16.619Z,16.72
2018-06-19T00:02:20.930Z,16.66
2018-06-19T00:02:25.132Z,16.65
2018-06-19T00:02:29.446Z,16.72
2018-06-19T00:02:33.540Z,16.65
2018-06-19T00:02:37.641Z,16.72
2018-06-19T00:02:41.864Z,16.72
2018-06-19T00:02:45.960Z,16.75
2018-06-19T00:02:50.168Z,16.66
2018-06-19T00:02:54.483Z,16.65
2018-06-19T00:02:58.579Z,16.66
2018-06-19T00:03:02.677Z,16.72
2018-06-19T00:03:06.885Z,16.72
2018-06-19T00:03:11.089Z,16.72
2018-06-19T00:03:15.400Z,16.66
2018-06-19T00:03:19.604Z,16.67
2018-06-19T00:03:23.814Z,16.7
2018-06-19T00:03:28.138Z,16.69
2018-06-19T00:03:32.344Z,16.69
2018-06-19T00:03:36.495Z,16.69
2018-06-19T00:03:40.711Z,16.75
2018-06-19T00:03:45.034Z,16.72
2018-06-19T00:03:49.351Z,16.67
2018-06-19T00:03:53.659Z,16.67
2018-06-19T00:03:57.978Z,16.7
2018-06-19T00:04:02.190Z,16.65
2018-06-19T00:04:06.414Z,16.67
2018-06-19T00:04:10.619Z,16.7
2018-06-19T00:04:14.824Z,16.7
2018-06-19T00:04:18.920Z,16.67
2018-06-19T00:04:23.127Z,16.75
2018-06-19T00:04:27.351Z,16.66
2018-06-19T00:04:31.558Z,16.7
2018-06-19T00:04:35.651Z,16.7
2018-06-19T00:04:39.961Z,16.66
2018-06-19T00:04:44.274Z,16.67
2018-06-19T00:04:48.480Z,16.66
2018-06-19T00:04:52.681Z,16.7
2018-06-19T00:04:56.995Z,16.65
2018-06-19T00:05:01.195Z,16.67
2018-06-19T00:05:05.088Z,16.67
2018-06-19T00:05:08.969Z,16.75
2018-06-19T00:05:12.956Z,16.77
2018-06-19T00:05:17.270Z,16.65
2018-06-19T00:05:21.399Z,16.67
2018-06-19T00:05:25.599Z,16.66
2018-06-19T00:05:29.907Z,16.67
2018-06-19T00:05:34.002Z,16.67
2018-06-19T00:05:38.318Z,16.7
2018-06-19T00:05:42.521Z,16.65
2018-06-19T00:05:46.725Z,16.66
2018-06-19T00:05:51.029Z,16.75
2018-06-19T00:05:55.338Z,16.67
2018-06-19T00:05:59.432Z,16.66
2018-06-19T00:06:03.645Z,16.69
2018-06-19T00:06:07.739Z,16.69
2018-06-19T00:06:11.743Z,16.65
2018-06-19T00:06:16.017Z,16.67
2018-06-19T00:06:20.336Z,16.69
2018-06-19T00:06:24.542Z,16.7
2018-06-19T00:06:28.680Z,16.65
2018-06-19T00:06:32.883Z,16.63
2018-06-19T00:06:37.090Z,16.65
2018-06-19T00:06:41.294Z,16.63
2018-06-19T00:06:45.615Z,16.67
2018-06-19T00:06:49.717Z,16.67
2018-06-19T00:06:53.926Z,16.62
2018-06-19T00:06:58.132Z,16.63
2018-06-19T00:07:02.450Z,16.66
2018-06-19T00:07:06.547Z,16.66
2018-06-19T00:07:10.859Z,16.67
2018-06-19T00:07:15.058Z,16.63
2018-06-19T00:07:19.265Z,16.63
2018-06-19T00:07:23.577Z,16.63
2018-06-19T00:07:27.782Z,16.62
2018-06-19T00:07:31.981Z,16.65
2018-06-19T00:07:36.076Z,16.63
2018-06-19T00:07:40.275Z,16.57
2018-06-19T00:07:44.477Z,16.62
2018-06-19T00:07:48.788Z,16.59
2018-06-19T00:07:52.989Z,16.67
2018-06-19T00:07:57.308Z,16.6
2018-06-19T00:08:01.514Z,16.6
2018-06-19T00:08:05.713Z,16.57
2018-06-19T00:08:09.918Z,16.63
2018-06-19T00:08:13.920Z,16.54
2018-06-19T00:08:18.119Z,16.6
2018-06-19T00:08:22.326Z,16.52
2018-06-19T00:08:26.632Z,16.57
2018-06-19T00:08:30.946Z,16.62
2018-06-19T00:08:35.166Z,16.6
2018-06-19T00:08:39.269Z,16.6
2018-06-19T00:08:43.468Z,16.62
2018-06-19T00:08:47.789Z,16.6
2018-06-19T00:08:52.094Z,16.55
2018-06-19T00:08:56.304Z,16.6
2018-06-19T00:09:00.500Z,16.54
2018-06-19T00:09:04.592Z,16.55
2018-06-19T00:09:08.695Z,16.6
2018-06-19T00:09:12.907Z,16.62
2018-06-19T00:09:17.219Z,16.51
2018-06-19T00:09:21.538Z,16.63
2018-06-19T00:09:25.647Z,16.59
2018-06-19T00:09:29.744Z,16.63
2018-06-19T00:09:33.949Z,16.6
2018-06-19T00:09:37.939Z,16.63
2018-06-19T00:09:42.266Z,16.55
2018-06-19T00:09:46.480Z,16.55
2018-06-19T00:09:50.679Z,16.57
2018-06-19T00:09:54.772Z,16.59
2018-06-19T00:09:59.127Z,16.54
2018-06-19T00:10:03.378Z,16.54
2018-06-19T00:10:07.475Z,16.54
2018-06-19T00:10:11.791Z,16.6
2018-06-19T00:10:15.888Z,16.54
2018-06-19T00:10:20.095Z,16.59
2018-06-19T00:10:24.304Z,16.59
2018-06-19T00:10:28.507Z,16.63
2018-06-19T00:10:32.609Z,16.55
2018-06-19T00:10:36.809Z,16.57
2018-06-19T00:10:41.118Z,16.55
2018-06-19T00:10:45.365Z,16.59
2018-06-19T00:10:49.576Z,16.52
2018-06-19T00:10:53.779Z,16.59
2018-06-19T00:10:57.872Z,16.55
2018-06-19T00:11:02.077Z,16.57
2018-06-19T00:11:05.959Z,16.55
2018-06-19T00:11:10.161Z,16.59
2018-06-19T00:11:14.472Z,16.6
2018-06-19T00:11:18.463Z,16.54
2018-06-19T00:11:22.673Z,16.52
2018-06-19T00:11:26.985Z,16.57
2018-06-19T00:11:31.186Z,16.57
2018-06-19T00:11:35.283Z,16.59
2018-06-19T00:11:39.486Z,16.52
2018-06-19T00:11:43.791Z,16.54
2018-06-19T00:11:47.889Z,16.52
2018-06-19T00:11:52.099Z,16.54
2018-06-19T00:11:56.194Z,16.55
2018-06-19T00:12:00.291Z,16.54
2018-06-19T00:12:04.337Z,16.54
2018-06-19T00:12:08.536Z,16.54
2018-06-19T00:12:12.636Z,16.55
2018-06-19T00:12:16.949Z,16.55
2018-06-19T00:12:21.256Z,16.55
2018-06-19T00:12:25.567Z,16.5
2018-06-19T00:12:29.766Z,16.55
2018-06-19T00:12:33.973Z,16.57
2018-06-19T00:12:38.284Z,16.48
2018-06-19T00:12:42.485Z,16.54
2018-06-19T00:12:46.581Z,16.55
2018-06-19T00:12:50.783Z,16.5
2018-06-19T00:12:54.986Z,16.51
2018-06-19T00:12:59.305Z,16.51
2018-06-19T00:13:03.413Z,16.47
2018-06-19T00:13:07.724Z,16.5
2018-06-19T00:13:11.821Z,16.51
2018-06-19T00:13:16.032Z,16.52
2018-06-19T00:13:20.335Z,16.59
2018-06-19T00:13:24.541Z,16.54
2018-06-19T00:13:28.739Z,16.45
2018-06-19T00:13:32.948Z,16.51
2018-06-19T00:13:37.055Z,16.52
2018-06-19T00:13:41.262Z,16.42
2018-06-19T00:13:45.576Z,16.5
2018-06-19T00:13:49.669Z,16.54
2018-06-19T00:13:53.982Z,16.51
2018-06-19T00:13:58.301Z,16.5
2018-06-19T00:14:02.287Z,16.42
2018-06-19T00:14:06.383Z,16.42
2018-06-19T00:14:10.597Z,16.44
2018-06-19T00:14:14.699Z,16.5
2018-06-19T00:14:19.006Z,16.45
2018-06-19T00:14:23.314Z,16.55
2018-06-19T00:14:27.309Z,16.57
2018-06-19T00:14:31.509Z,16.42
2018-06-19T00:14:35.711Z,16.48
2018-06-19T00:14:39.812Z,16.41
2018-06-19T00:14:43.909Z,16.42
2018-06-19T00:14:48.109Z,16.52
2018-06-19T00:14:52.211Z,16.44
2018-06-19T00:14:56.416Z,16.41
2018-06-19T00:15:00.509Z,16.47
2018-06-19T00:15:04.401Z,16.52
2018-06-19T00:15:08.747Z,16.45
2018-06-19T00:15:12.840Z,16.41
2018-06-19T00:15:17.044Z,16.41
2018-06-19T00:15:21.136Z,16.47
2018-06-19T00:15:25.444Z,16.47
2018-06-19T00:15:29.662Z,16.47
2018-06-19T00:15:33.971Z,16.42
2018-06-19T00:15:38.278Z,16.48
2018-06-19T00:15:42.490Z,16.41
2018-06-19T00:15:46.701Z,16.48
2018-06-19T00:15:50.905Z,16.5
2018-06-19T00:15:55.211Z,16.42
2018-06-19T00:15:59.411Z,16.37
2018-06-19T00:16:03.664Z,16.48
2018-06-19T00:16:07.876Z,16.47
2018-06-19T00:16:11.968Z,16.47
2018-06-19T00:16:16.172Z,16.42
2018-06-19T00:16:20.376Z,16.44
2018-06-19T00:16:24.584Z,16.42
2018-06-19T00:16:28.683Z,16.44
2018-06-19T00:16:33.001Z,16.44
2018-06-19T00:16:37.205Z,16.51
2018-06-19T00:16:41.570Z,16.45
2018-06-19T00:16:45.887Z,16.45
2018-06-19T00:16:49.985Z,16.5
2018-06-19T00:16:54.189Z,16.44
2018-06-19T00:16:58.178Z,16.48
2018-06-19T00:17:02.488Z,16.45
2018-06-19T00:17:06.697Z,16.42
2018-06-19T00:17:10.999Z,16.47
2018-06-19T00:17:15.102Z,16.45
2018-06-19T00:17:19.418Z,16.44
2018-06-19T00:17:23.405Z,16.47
2018-06-19T00:17:27.624Z,16.45
2018-06-19T00:17:31.825Z,16.5
2018-06-19T00:17:35.922Z,16.47
2018-06-19T00:17:40.027Z,16.44
2018-06-19T00:17:44.244Z,16.45
2018-06-19T00:17:48.341Z,16.44
2018-06-19T00:17:52.669Z,16.4
2018-06-19T00:17:56.765Z,16.45
2018-06-19T00:18:00.869Z,16.44
2018-06-19T00:18:04.968Z,16.48
2018-06-19T00:18:09.172Z,16.48
2018-06-19T00:18:13.486Z,16.45
2018-06-19T00:18:17.691Z,16.41
2018-06-19T00:18:21.801Z,16.44
2018-06-19T00:18:26.015Z,16.51
2018-06-19T00:18:30.232Z,16.45
2018-06-19T00:18:34.437Z,16.5
2018-06-19T00:18:38.747Z,16.42
2018-06-19T00:18:43.058Z,16.44
2018-06-19T00:18:47.050Z,16.45
2018-06-19T00:18:51.354Z,16.48
2018-06-19T00:18:55.559Z,16.48
2018-06-19T00:18:59.872Z,16.42
2018-06-19T00:19:04.079Z,16.44
2018-06-19T00:19:08.177Z,16.41
2018-06-19T00:19:12.387Z,16.45
2018-06-19T00:19:16.590Z,16.47
2018-06-19T00:19:20.697Z,16.44
2018-06-19T00:19:24.690Z,16.45
2018-06-19T00:19:28.567Z,16.51
2018-06-19T00:19:32.877Z,16.47
2018-06-19T00:19:36.975Z,16.48
2018-06-19T00:19:41.186Z,16.47
2018-06-19T00:19:45.512Z,16.42
2018-06-19T00:19:49.724Z,16.51
2018-06-19T00:19:54.039Z,16.4
2018-06-19T00:19:58.241Z,16.47
2018-06-19T00:20:02.338Z,16.47
2018-06-19T00:20:06.334Z,16.5
2018-06-19T00:20:10.641Z,16.44
2018-06-19T00:20:14.847Z,16.48
2018-06-19T00:20:19.054Z,16.5
2018-06-19T00:20:23.370Z,16.37
2018-06-19T00:20:27.684Z,16.48
2018-06-19T00:20:31.992Z,16.44
2018-06-19T00:20:36.197Z,16.48
2018-06-19T00:20:40.503Z,16.48
2018-06-19T00:20:44.706Z,16.44
2018-06-19T00:20:48.910Z,16.45
2018-06-19T00:20:53.116Z,16.42
2018-06-19T00:20:57.318Z,16.47
2018-06-19T00:21:01.520Z,16.44
2018-06-19T00:21:05.409Z,16.47
2018-06-19T00:21:09.610Z,16.48
2018-06-19T00:21:13.925Z,16.44
2018-06-19T00:21:18.133Z,16.47
2018-06-19T00:21:22.347Z,16.47
2018-06-19T00:21:26.656Z,16.51
2018-06-19T00:21:30.858Z,16.4
2018-06-19T00:21:35.166Z,16.37
2018-06-19T00:21:39.474Z,16.47
2018-06-19T00:21:43.776Z,16.47
2018-06-19T00:21:47.975Z,16.47
2018-06-19T00:21:52.293Z,16.48
2018-06-19T00:21:56.504Z,16.44
2018-06-19T00:22:00.827Z,16.47
2018-06-19T00:22:04.834Z,16.48
2018-06-19T00:22:09.035Z,16.47
2018-06-19T00:22:13.148Z,16.44
2018-06-19T00:22:17.464Z,16.42
2018-06-19T00:22:21.568Z,16.44
2018-06-19T00:22:25.768Z,16.45
2018-06-19T00:22:30.083Z,16.51
2018-06-19T00:22:34.391Z,16.34
2018-06-19T00:22:38.709Z,16.47
2018-06-19T00:22:42.970Z,16.48
2018-06-19T00:22:47.173Z,16.47
2018-06-19T00:22:51.481Z,16.41
2018-06-19T00:22:55.681Z,16.48
2018-06-19T00:22:59.989Z,16.47
2018-06-19T00:23:04.027Z,16.51
2018-06-19T00:23:08.336Z,16.4
2018-06-19T00:23:12.321Z,16.45
2018-06-19T00:23:16.419Z,16.48
2018-06-19T00:23:20.622Z,16.47
2018-06-19T00:23:24.820Z,16.47
2018-06-19T00:23:29.133Z,16.45
2018-06-19T00:23:33.232Z,16.42
2018-06-19T00:23:37.438Z,16.47
2018-06-19T00:23:41.749Z,16.4
2018-06-19T00:23:46.071Z,16.48
2018-06-19T00:23:50.277Z,16.52
2018-06-19T00:23:54.585Z,16.42
2018-06-19T00:23:58.798Z,16.34
2018-06-19T00:24:03.011Z,16.48
2018-06-19T00:24:07.326Z,16.44
2018-06-19T00:24:11.634Z,16.4
2018-06-19T00:24:15.832Z,16.42
2018-06-19T00:24:19.937Z,16.47
2018-06-19T00:24:24.139Z,16.5
2018-06-19T00:24:28.236Z,16.54
2018-06-19T00:24:32.549Z,16.45
2018-06-19T00:24:36.750Z,16.41
2018-06-19T00:24:40.947Z,16.48
2018-06-19T00:24:45.153Z,16.48
2018-06-19T00:24:49.354Z,16.41
2018-06-19T00:24:53.450Z,16.5
2018-06-19T00:24:57.761Z,16.47
2018-06-19T00:25:01.862Z,16.51
2018-06-19T00:25:05.857Z,16.44
2018-06-19T00:25:10.000Z,16.52
2018-06-19T00:25:14.307Z,16.47
2018-06-19T00:25:18.506Z,16.51
2018-06-19T00:25:22.705Z,16.47
2018-06-19T00:25:26.801Z,16.5
2018-06-19T00:25:30.902Z,16.47
2018-06-19T00:25:35.111Z,16.48
2018-06-19T00:25:39.313Z,16.37
2018-06-19T00:25:43.634Z,16.36
2018-06-19T00:25:47.849Z,16.48
2018-06-19T00:25:52.163Z,16.41
2018-06-19T00:25:56.530Z,16.45
2018-06-19T00:26:00.841Z,16.47
2018-06-19T00:26:04.833Z,16.42
2018-06-19T00:26:08.929Z,16.41
2018-06-19T00:26:13.237Z,16.42
2018-06-19T00:26:17.335Z,16.47
2018-06-19T00:26:21.537Z,16.51
2018-06-19T00:26:25.845Z,16.44
2018-06-19T00:26:30.156Z,16.48
2018-06-19T00:26:34.364Z,16.48
2018-06-19T00:26:38.466Z,16.45
2018-06-19T00:26:42.776Z,16.47
2018-06-19T00:26:47.087Z,16.45
2018-06-19T00:26:51.182Z,16.47
2018-06-19T00:26:55.272Z,16.48
2018-06-19T00:26:59.578Z,16.51
2018-06-19T00:27:03.575Z,16.47
2018-06-19T00:27:07.901Z,16.4
2018-06-19T00:27:12.215Z,16.45
2018-06-19T00:27:16.316Z,16.47
2018-06-19T00:27:20.518Z,16.37
2018-06-19T00:27:24.613Z,16.45
2018-06-19T00:27:28.708Z,16.45
2018-06-19T00:27:32.704Z,16.37
2018-06-19T00:27:36.807Z,16.47
2018-06-19T00:27:41.115Z,16.44
2018-06-19T00:27:45.326Z,16.44
2018-06-19T00:27:49.423Z,16.47
2018-06-19T00:27:53.623Z,16.41
2018-06-19T00:27:57.613Z,16.51
2018-06-19T00:28:01.709Z,16.51
2018-06-19T00:28:05.812Z,16.44
2018-06-19T00:28:10.034Z,16.45
2018-06-19T00:28:14.236Z,16.48
2018-06-19T00:28:18.339Z,16.47
2018-06-19T00:28:22.548Z,16.51
2018-06-19T00:28:26.875Z,16.45
2018-06-19T00:28:31.078Z,16.42
2018-06-19T00:28:35.283Z,16.45
2018-06-19T00:28:39.376Z,16.42
2018-06-19T00:28:43.577Z,16.42
2018-06-19T00:28:47.672Z,16.47
2018-06-19T00:28:51.767Z,16.47
2018-06-19T00:28:55.969Z,16.42
2018-06-19T00:29:00.068Z,16.44
2018-06-19T00:29:04.379Z,16.42
2018-06-19T00:29:08.585Z,16.5
2018-06-19T00:29:12.900Z,16.48
2018-06-19T00:29:17.102Z,16.47
2018-06-19T00:29:21.294Z,16.41
2018-06-19T00:29:25.501Z,16.42
2018-06-19T00:29:29.812Z,16.45
2018-06-19T00:29:33.903Z,16.42
2018-06-19T00:29:37.891Z,16.47
2018-06-19T00:29:42.093Z,16.42
2018-06-19T00:29:46.184Z,16.52
2018-06-19T00:29:50.392Z,16.42
2018-06-19T00:29:54.705Z,16.42
2018-06-19T00:29:58.903Z,16.48
2018-06-19T00:30:03.114Z,16.47
2018-06-19T00:30:07.424Z,16.44
2018-06-19T00:30:11.419Z,16.47
2018-06-19T00:30:15.736Z,16.34
2018-06-19T00:30:19.835Z,16.51
2018-06-19T00:30:24.139Z,16.45
2018-06-19T00:30:28.454Z,16.45
2018-06-19T00:30:32.772Z,16.55
2018-06-19T00:30:36.980Z,16.41
2018-06-19T00:30:41.183Z,16.51
2018-06-19T00:30:45.278Z,16.47
2018-06-19T00:30:49.481Z,16.51
2018-06-19T00:30:53.801Z,16.47
2018-06-19T00:30:58.016Z,16.52
2018-06-19T00:31:02.222Z,16.41
2018-06-19T00:31:06.320Z,16.44
2018-06-19T00:31:10.311Z,16.48
2018-06-19T00:31:14.412Z,16.48
2018-06-19T00:31:18.665Z,16.52
2018-06-19T00:31:22.879Z,16.47
2018-06-19T00:31:27.190Z,16.44
2018-06-19T00:31:31.637Z,16.48
2018-06-19T00:31:35.913Z,16.42
2018-06-19T00:31:40.114Z,16.48
2018-06-19T00:31:44.423Z,16.48
2018-06-19T00:31:48.528Z,16.42
2018-06-19T00:31:52.847Z,16.51
2018-06-19T00:31:57.050Z,16.5
2018-06-19T00:32:01.263Z,16.5
2018-06-19T00:32:05.363Z,16.37
2018-06-19T00:32:09.572Z,16.4
2018-06-19T00:32:13.886Z,16.42
2018-06-19T00:32:17.877Z,16.41
2018-06-19T00:32:22.193Z,16.51
2018-06-19T00:32:26.500Z,16.4
2018-06-19T00:32:30.598Z,16.34
2018-06-19T00:32:34.910Z,16.47
2018-06-19T00:32:39.113Z,16.48
2018-06-19T00:32:43.336Z,16.47
2018-06-19T00:32:47.433Z,16.47
2018-06-19T00:32:51.526Z,16.4
2018-06-19T00:32:55.780Z,16.48
2018-06-19T00:33:00.088Z,16.36
2018-06-19T00:33:04.300Z,16.47
2018-06-19T00:33:08.292Z,16.42
2018-06-19T00:33:12.603Z,16.4
2018-06-19T00:33:16.696Z,16.48
2018-06-19T00:33:21.007Z,16.4
2018-06-19T00:33:25.318Z,16.47
2018-06-19T00:33:29.429Z,16.45
2018-06-19T00:33:33.744Z,16.51
2018-06-19T00:33:37.948Z,16.36
2018-06-19T00:33:42.151Z,16.37
2018-06-19T00:33:46.467Z,16.34
2018-06-19T00:33:50.670Z,16.4
2018-06-19T00:33:54.978Z,16.33
2018-06-19T00:33:59.187Z,16.51
2018-06-19T00:34:03.390Z,16.45
2018-06-19T00:34:07.488Z,16.36
2018-06-19T00:34:11.481Z,16.41
2018-06-19T00:34:15.688Z,16.47
2018-06-19T00:34:19.998Z,16.47
2018-06-19T00:34:24.197Z,16.4
2018-06-19T00:34:28.399Z,16.34
2018-06-19T00:34:32.715Z,16.33
2018-06-19T00:34:37.025Z,16.41
2018-06-19T00:34:41.339Z,16.47
2018-06-19T00:34:45.655Z,16.37
2018-06-19T00:34:49.860Z,16.36
2018-06-19T00:34:54.176Z,16.37
2018-06-19T00:34:58.381Z,16.36
2018-06-19T00:35:02.590Z,16.4
2018-06-19T00:35:06.800Z,16.37
2018-06-19T00:35:11.131Z,16.36
2018-06-19T00:35:15.232Z,16.32
2018-06-19T00:35:19.328Z,16.36
2018-06-19T00:35:23.636Z,16.36
2018-06-19T00:35:27.840Z,16.32
2018-06-19T00:35:32.040Z,16.32
2018-06-19T00:35:36.237Z,16.34
2018-06-19T00:35:40.438Z,16.36
2018-06-19T00:35:44.642Z,16.34
2018-06-19T00:35:48.958Z,16.33
2018-06-19T00:35:53.203Z,16.36
2018-06-19T00:35:57.521Z,16.33
2018-06-19T00:36:01.849Z,16.47
2018-06-19T00:36:06.059Z,16.37
2018-06-19T00:36:10.157Z,16.36
2018-06-19T00:36:14.362Z,16.37
2018-06-19T00:36:18.669Z,16.4
2018-06-19T00:36:22.985Z,16.4
2018-06-19T00:36:26.975Z,16.4
2018-06-19T00:36:31.286Z,16.4
2018-06-19T00:36:35.492Z,16.34
2018-06-19T00:36:39.811Z,16.34
2018-06-19T00:36:44.120Z,16.37
2018-06-19T00:36:48.324Z,16.36
2018-06-19T00:36:52.557Z,16.34
2018-06-19T00:36:56.860Z,16.36
2018-06-19T00:37:01.059Z,16.36
2018-06-19T00:37:05.264Z,16.33
2018-06-19T00:37:09.360Z,16.4
2018-06-19T00:37:13.675Z,16.32
2018-06-19T00:37:17.876Z,16.3
2018-06-19T00:37:22.184Z,16.37
2018-06-19T00:37:26.497Z,16.36
2018-06-19T00:37:30.597Z,16.44
2018-06-19T00:37:34.908Z,16.36
2018-06-19T00:37:39.219Z,16.33
2018-06-19T00:37:43.313Z,16.45
2018-06-19T00:37:47.619Z,16.33
2018-06-19T00:37:51.721Z,16.41
2018-06-19T00:37:56.030Z,16.37
2018-06-19T00:38:00.232Z,16.33
2018-06-19T00:38:04.230Z,16.33
2018-06-19T00:38:08.220Z,16.36
2018-06-19T00:38:12.423Z,16.3
2018-06-19T00:38:16.525Z,16.34
2018-06-19T00:38:20.736Z,16.34
2018-06-19T00:38:25.046Z,16.4
2018-06-19T00:38:29.141Z,16.37
2018-06-19T00:38:33.357Z,16.37
2018-06-19T00:38:37.451Z,16.34
2018-06-19T00:38:41.546Z,16.37
2018-06-19T00:38:45.756Z,16.36
2018-06-19T00:38:50.081Z,16.37
2018-06-19T00:38:54.393Z,16.36
2018-06-19T00:38:58.701Z,16.37
2018-06-19T00:39:02.691Z,16.34
2018-06-19T00:39:06.900Z,16.37
2018-06-19T00:39:11.005Z,16.36
2018-06-19T00:39:15.319Z,16.41
2018-06-19T00:39:19.524Z,16.4
2018-06-19T00:39:23.725Z,16.36
2018-06-19T00:39:27.817Z,16.42
2018-06-19T00:39:32.126Z,16.34
2018-06-19T00:39:36.331Z,16.41
2018-06-19T00:39:40.534Z,16.37
2018-06-19T00:39:44.847Z,16.37
2018-06-19T00:39:49.050Z,16.34
2018-06-19T00:39:53.367Z,16.4
2018-06-19T00:39:57.570Z,16.4
2018-06-19T00:40:01.807Z,16.36
2018-06-19T00:40:05.902Z,16.34
2018-06-19T00:40:10.001Z,16.3
2018-06-19T00:40:14.102Z,16.27
2018-06-19T00:40:18.200Z,16.33
2018-06-19T00:40:22.398Z,16.37
2018-06-19T00:40:26.393Z,16.33
2018-06-19T00:40:30.620Z,16.37
2018-06-19T00:40:34.825Z,16.34
2018-06-19T00:40:39.034Z,16.36
2018-06-19T00:40:43.360Z,16.32
2018-06-19T00:40:47.670Z,16.22
2018-06-19T00:40:51.976Z,16.17
2018-06-19T00:40:56.185Z,16.26
2018-06-19T00:41:00.495Z,16.37
2018-06-19T00:41:04.591Z,16.29
2018-06-19T00:41:08.796Z,16.29
2018-06-19T00:41:12.894Z,16.29
2018-06-19T00:41:17.212Z,16.36
2018-06-19T00:41:21.307Z,16.25
2018-06-19T00:41:25.670Z,16.29
2018-06-19T00:41:29.888Z,16.33
2018-06-19T00:41:33.980Z,16.3
2018-06-19T00:41:38.291Z,16.26
2018-06-19T00:41:42.495Z,16.29
2018-06-19T00:41:46.805Z,16.33
2018-06-19T00:41:50.901Z,16.29
2018-06-19T00:41:54.999Z,16.27
2018-06-19T00:41:59.315Z,16.37
2018-06-19T00:42:03.528Z,16.29
2018-06-19T00:42:07.841Z,16.33
2018-06-19T00:42:12.210Z,16.36
2018-06-19T00:42:16.420Z,16.29
2018-06-19T00:42:20.732Z,16.37
2018-06-19T00:42:24.940Z,16.29
2018-06-19T00:42:29.243Z,16.32
2018-06-19T00:42:33.346Z,16.29
2018-06-19T00:42:37.439Z,16.32
2018-06-19T00:42:41.764Z,16.29
2018-06-19T00:42:46.075Z,16.29
2018-06-19T00:42:50.279Z,16.26
2018-06-19T00:42:54.482Z,16.26
2018-06-19T00:42:58.578Z,16.29
2018-06-19T00:43:02.897Z,16.23
2018-06-19T00:43:06.995Z,16.29
2018-06-19T00:43:11.035Z,16.26
2018-06-19T00:43:15.346Z,16.29
2018-06-19T00:43:19.442Z,16.26
2018-06-19T00:43:23.647Z,16.3
2018-06-19T00:43:27.844Z,16.23
2018-06-19T00:43:32.050Z,16.25
2018-06-19T00:43:36.149Z,16.17
2018-06-19T00:43:40.350Z,16.26
2018-06-19T00:43:44.446Z,16.17
2018-06-19T00:43:48.806Z,16.16
2018-06-19T00:43:53.016Z,16.29
2018-06-19T00:43:56.901Z,16.26
2018-06-19T00:44:01.220Z,16.16
2018-06-19T00:44:05.429Z,16.14
2018-06-19T00:44:09.318Z,16.29
2018-06-19T00:44:13.646Z,16.3
2018-06-19T00:44:17.970Z,16.13
2018-06-19T00:44:22.283Z,16.27
2018-06-19T00:44:26.273Z,16.3
2018-06-19T00:44:30.580Z,16.25
2018-06-19T00:44:34.567Z,16.25
2018-06-19T00:44:38.667Z,16.18
2018-06-19T00:44:42.970Z,16.16
2018-06-19T00:44:47.073Z,16.22
2018-06-19T00:44:51.280Z,16.14
2018-06-19T00:44:55.479Z,16.34
2018-06-19T00:44:59.680Z,16.23
2018-06-19T00:45:03.776Z,16.17
2018-06-19T00:45:07.872Z,16.22
2018-06-19T00:45:12.191Z,16.16
2018-06-19T00:45:16.509Z,16.14
2018-06-19T00:45:20.603Z,16.11
2018-06-19T00:45:24.807Z,16.25
2018-06-19T00:45:29.123Z,16.14
2018-06-19T00:45:33.115Z,16.17
2018-06-19T00:45:37.216Z,16.22
2018-06-19T00:45:41.523Z,16.17
2018-06-19T00:45:45.833Z,16.11
2018-06-19T00:45:50.037Z,16.22
2018-06-19T00:45:54.237Z,16.17
2018-06-19T00:45:58.235Z,16.14
2018-06-19T00:46:02.542Z,16.17
2018-06-19T00:46:06.751Z,16.16
2018-06-19T00:46:10.746Z,16.11
2018-06-19T00:46:14.846Z,16.16
2018-06-19T00:46:19.155Z,16.13
2018-06-19T00:46:23.361Z,16.13
2018-06-19T00:46:27.559Z,16.13
2018-06-19T00:46:31.762Z,16.16
2018-06-19T00:46:35.963Z,16.16
2018-06-19T00:46:40.331Z,16.11
2018-06-19T00:46:44.663Z,16.16
2018-06-19T00:46:48.973Z,16.16
2018-06-19T00:46:53.176Z,16.1
2018-06-19T00:46:57.378Z,16.16
2018-06-19T00:47:01.478Z,16.13
2018-06-19T00:47:05.355Z,16.07
2018-06-19T00:47:09.448Z,16.14
2018-06-19T00:47:13.761Z,16.16
2018-06-19T00:47:18.069Z,16.08
2018-06-19T00:47:22.385Z,16.13
2018-06-19T00:47:26.692Z,16.13
2018-06-19T00:47:30.836Z,16.14
2018-06-19T00:47:35.146Z,16.17
2018-06-19T00:47:39.456Z,16.13
2018-06-19T00:47:43.714Z,16.06
2018-06-19T00:47:47.712Z,16.14
2018-06-19T00:47:52.018Z,16.13
2018-06-19T00:47:56.118Z,16.13
2018-06-19T00:48:00.323Z,16.08
2018-06-19T00:48:04.646Z,16.08
2018-06-19T00:48:08.640Z,16.06
2018-06-19T00:48:12.962Z,16.13
2018-06-19T00:48:16.843Z,16.06
2018-06-19T00:48:21.049Z,16.03
2018-06-19T00:48:25.142Z,16.13
2018-06-19T00:48:29.242Z,15.98
2018-06-19T00:48:33.458Z,16.03
2018-06-19T00:48:37.661Z,16.07
2018-06-19T00:48:41.862Z,16.06
2018-06-19T00:48:46.075Z,16.04
2018-06-19T00:48:50.065Z,16.07
2018-06-19T00:48:54.374Z,15.99
2018-06-19T00:48:58.576Z,16.01
2018-06-19T00:49:02.674Z,16.01
2018-06-19T00:49:06.878Z,16.03
2018-06-19T00:49:11.084Z,16.04
2018-06-19T00:49:15.415Z,16.04
2018-06-19T00:49:19.739Z,16.03
2018-06-19T00:49:24.056Z,16.06
2018-06-19T00:49:28.041Z,16.01
2018-06-19T00:49:32.236Z,16.03
2018-06-19T00:49:36.328Z,15.99
2018-06-19T00:49:40.636Z,15.99
2018-06-19T00:49:44.841Z,15.98
2018-06-19T00:49:49.151Z,16.01
2018-06-19T00:49:53.359Z,16.06
2018-06-19T00:49:57.557Z,15.98
2018-06-19T00:50:01.708Z,16.03
2018-06-19T00:50:05.807Z,16.04
2018-06-19T00:50:10.017Z,16.04
2018-06-19T00:50:14.331Z,16.07
2018-06-19T00:50:18.537Z,16.11
2018-06-19T00:50:22.632Z,15.98
2018-06-19T00:50:26.849Z,15.98
2018-06-19T00:50:31.104Z,15.93
2018-06-19T00:50:35.417Z,16.03
2018-06-19T00:50:39.621Z,16.04
2018-06-19T00:50:43.856Z,16.04
2018-06-19T00:50:47.952Z,15.93
2018-06-19T00:50:52.157Z,15.99
2018-06-19T00:50:56.366Z,16.07
2018-06-19T00:51:00.566Z,16.07
2018-06-19T00:51:04.774Z,15.99
2018-06-19T00:51:08.973Z,16.01
2018-06-19T00:51:13.173Z,16.01
2018-06-19T00:51:17.485Z,16.08
2018-06-19T00:51:21.801Z,16.08
2018-06-19T00:51:26.110Z,16.08
2018-06-19T00:51:30.331Z,15.99
2018-06-19T00:51:34.584Z,15.99
2018-06-19T00:51:38.683Z,15.95
2018-06-19T00:51:42.793Z,15.96
2018-06-19T00:51:47.002Z,16.08
2018-06-19T00:51:51.111Z,16.04
2018-06-19T00:51:55.420Z,15.99
2018-06-19T00:51:59.521Z,15.98
2018-06-19T00:52:03.832Z,16.03
2018-06-19T00:52:07.929Z,15.99
2018-06-19T00:52:11.922Z,16.04
2018-06-19T00:52:16.236Z,16.13
2018-06-19T00:52:20.573Z,16.04
2018-06-19T00:52:24.776Z,16.11
2018-06-19T00:52:28.984Z,15.98
2018-06-19T00:52:33.193Z,16.08
2018-06-19T00:52:37.399Z,16.03
2018-06-19T00:52:41.717Z,16.04
2018-06-19T00:52:45.919Z,16.1
2018-06-19T00:52:50.234Z,16.06
2018-06-19T00:52:54.442Z,16.11
2018-06-19T00:52:58.757Z,16.06
2018-06-19T00:53:02.856Z,15.98
2018-06-19T00:53:07.180Z,16.07
2018-06-19T00:53:11.274Z,15.92
2018-06-19T00:53:15.263Z,16.07
2018-06-19T00:53:19.480Z,16.06
2018-06-19T00:53:23.576Z,15.98
2018-06-19T00:53:27.886Z,15.98
2018-06-19T00:53:32.087Z,16.08
2018-06-19T00:53:36.409Z,16.07
2018-06-19T00:53:40.717Z,15.98
2018-06-19T00:53:44.818Z,16.06
2018-06-19T00:53:49.030Z,15.96
2018-06-19T00:53:53.126Z,15.98
2018-06-19T00:53:57.116Z,15.98
2018-06-19T00:54:01.476Z,15.99
2018-06-19T00:54:05.677Z,16.01
2018-06-19T00:54:09.894Z,16.04
2018-06-19T00:54:13.984Z,16.03
2018-06-19T00:54:18.189Z,15.98